createdAt,value
2022-11-13T00:00:31.730Z,9.40
2022-11-13T00:03:38.926Z,9.40
2022-11-13T00:06:43.203Z,9.40
2022-11-13T00:09:47.458Z,9.40
2022-11-13T00:12:56.726Z,9.30
2022-11-13T00:16:05.352Z,9.30
2022-11-13T00:19:09.533Z,9.30
2022-11-13T00:22:13.868Z,9.30
2022-11-13T00:25:21.080Z,9.30
2022-11-13T00:28:25.838Z,9.40
2022-11-13T00:31:31.337Z,9.30
2022-11-13T00:34:50.758Z,9.30
2022-11-13T00:37:55.127Z,9.30
2022-11-13T00:41:02.424Z,9.20
2022-11-13T00:44:06.975Z,9.20
2022-11-13T00:47:16.494Z,9.20
2022-11-13T00:50:20.578Z,9.20
2022-11-13T00:53:25.105Z,9.20
2022-11-13T00:56:29.557Z,9.20
2022-11-13T00:59:34.065Z,9.20
2022-11-13T01:02:38.190Z,9.20
2022-11-13T01:05:44.816Z,9.20
2022-11-13T01:08:49.764Z,9.20
2022-11-13T01:11:54.635Z,9.20
2022-11-13T01:14:59.705Z,9.20
2022-11-13T01:18:04.328Z,9.10
2022-11-13T01:21:11.842Z,9.10
2022-11-13T01:24:16.087Z,9.10
2022-11-13T01:27:20.474Z,9.10
2022-11-13T01:30:24.599Z,9.10
2022-11-13T01:33:32.216Z,9.10
2022-11-13T01:36:36.697Z,9.10
2022-11-13T01:39:44.278Z,9.10
2022-11-13T01:42:48.755Z,9.10
2022-11-13T01:45:58.842Z,9.10
2022-11-13T01:49:12.576Z,9.00
2022-11-13T01:52:27.234Z,8.90
2022-11-13T01:55:31.413Z,8.90
2022-11-13T01:58:40.678Z,8.80
2022-11-13T02:01:45.007Z,8.80
2022-11-13T02:04:49.169Z,8.80
2022-11-13T02:07:53.606Z,8.70
2022-11-13T02:10:58.249Z,8.80
2022-11-13T02:14:04.274Z,8.70
2022-11-13T02:17:13.102Z,8.70
2022-11-13T02:20:27.873Z,8.70
2022-11-13T02:23:48.618Z,8.70
2022-11-13T02:26:55.776Z,8.70
2022-11-13T02:30:12.831Z,8.70
2022-11-13T02:33:30.350Z,8.60
2022-11-13T02:36:35.858Z,8.70
2022-11-13T02:39:40.889Z,8.60
2022-11-13T02:42:45.563Z,8.60
2022-11-13T02:45:49.885Z,8.60
2022-11-13T02:48:54.607Z,8.60
2022-11-13T02:51:58.844Z,8.60
2022-11-13T02:55:04.206Z,8.60
2022-11-13T02:58:08.301Z,8.60
2022-11-13T03:01:12.996Z,8.50
2022-11-13T03:04:17.428Z,8.50
2022-11-13T03:07:21.710Z,8.60
2022-11-13T03:10:26.163Z,8.60
2022-11-13T03:13:32.204Z,8.60
2022-11-13T03:16:36.741Z,8.70
2022-11-13T03:19:41.222Z,8.60
2022-11-13T03:22:45.623Z,8.60
2022-11-13T03:25:49.883Z,8.60
2022-11-13T03:28:54.574Z,8.70
2022-11-13T03:31:58.822Z,8.70
2022-11-13T03:35:03.481Z,8.60
2022-11-13T03:38:07.774Z,8.60
2022-11-13T03:41:14.805Z,8.50
2022-11-13T03:44:19.256Z,8.50
2022-11-13T03:47:23.623Z,8.50
2022-11-13T03:50:28.030Z,8.50
2022-11-13T03:53:32.694Z,8.50
2022-11-13T03:56:36.743Z,8.50
2022-11-13T03:59:41.009Z,8.40
2022-11-13T04:02:45.382Z,8.40
2022-11-13T04:05:50.756Z,8.40
2022-11-13T04:08:54.947Z,8.40
2022-11-13T04:11:59.395Z,8.40
2022-11-13T04:15:04.035Z,8.40
2022-11-13T04:18:11.728Z,8.40
2022-11-13T04:21:18.561Z,8.30
2022-11-13T04:24:22.835Z,8.30
2022-11-13T04:27:27.390Z,8.30
2022-11-13T04:30:31.750Z,8.40
2022-11-13T04:33:36.289Z,8.30
2022-11-13T04:36:40.373Z,8.30
2022-11-13T04:39:45.125Z,8.30
2022-11-13T04:42:52.198Z,8.30
2022-11-13T04:45:56.556Z,8.30
2022-11-13T04:49:01.138Z,8.40
2022-11-13T04:52:08.906Z,8.40
2022-11-13T04:55:13.603Z,8.30
2022-11-13T04:58:17.821Z,8.30
2022-11-13T05:01:22.669Z,8.30
2022-11-13T05:04:26.663Z,8.30
2022-11-13T05:07:31.286Z,8.30
2022-11-13T05:10:35.689Z,8.20
2022-11-13T05:13:39.995Z,8.20
2022-11-13T05:16:44.951Z,8.10
2022-11-13T05:19:49.133Z,8.10
2022-11-13T05:22:53.746Z,8.00
2022-11-13T05:26:04.268Z,8.00
2022-11-13T05:29:08.889Z,7.90
2022-11-13T05:32:16.023Z,7.90
2022-11-13T05:35:20.861Z,7.80
2022-11-13T05:38:25.495Z,7.80
2022-11-13T05:41:33.118Z,7.80
2022-11-13T05:44:37.356Z,7.80
2022-11-13T05:47:41.782Z,7.70
2022-11-13T05:50:46.274Z,7.70
2022-11-13T05:53:51.202Z,7.60
2022-11-13T05:56:55.119Z,7.60
2022-11-13T05:59:59.387Z,7.60
2022-11-13T06:03:03.795Z,7.60
2022-11-13T06:06:11.465Z,7.60
2022-11-13T06:09:18.903Z,7.50
2022-11-13T06:12:32.931Z,7.60
2022-11-13T06:15:37.478Z,7.60
2022-11-13T06:18:43.411Z,7.70
2022-11-13T06:21:50.442Z,7.70
2022-11-13T06:24:54.722Z,7.80
2022-11-13T06:27:59.163Z,7.80
2022-11-13T06:31:10.638Z,7.90
2022-11-13T06:34:15.639Z,7.90
2022-11-13T06:37:19.819Z,8.00
2022-11-13T06:40:24.192Z,8.00
2022-11-13T06:43:29.090Z,8.10
2022-11-13T06:46:33.589Z,8.20
2022-11-13T06:49:40.823Z,8.20
2022-11-13T06:52:45.298Z,8.20
2022-11-13T06:55:50.775Z,8.20
2022-11-13T06:58:56.181Z,8.20
2022-11-13T07:02:00.476Z,8.20
2022-11-13T07:05:04.914Z,8.20
2022-11-13T07:08:09.229Z,8.20
2022-11-13T07:11:20.228Z,8.20
2022-11-13T07:14:26.959Z,8.20
2022-11-13T07:17:31.513Z,8.20
2022-11-13T07:20:35.793Z,8.20
2022-11-13T07:23:43.286Z,8.20
2022-11-13T07:26:50.485Z,8.30
2022-11-13T07:29:59.521Z,8.40
2022-11-13T07:33:07.367Z,8.50
2022-11-13T07:36:14.493Z,8.50
2022-11-13T07:39:18.769Z,8.70
2022-11-13T07:42:23.286Z,8.70
2022-11-13T07:45:28.811Z,8.80
2022-11-13T07:48:33.057Z,8.80
2022-11-13T07:51:37.714Z,8.80
2022-11-13T07:54:42.510Z,8.90
2022-11-13T07:57:50.003Z,8.90
2022-11-13T08:01:05.432Z,8.90
2022-11-13T08:04:09.631Z,9.00
2022-11-13T08:07:14.323Z,9.00
2022-11-13T08:10:20.202Z,9.10
2022-11-13T08:13:24.864Z,9.10
2022-11-13T08:16:29.369Z,9.20
2022-11-13T08:19:33.500Z,9.20
2022-11-13T08:22:38.035Z,9.30
2022-11-13T08:25:43.974Z,9.30
2022-11-13T08:28:49.035Z,9.40
2022-11-13T08:31:53.575Z,9.50
2022-11-13T08:34:57.606Z,9.60
2022-11-13T08:38:07.002Z,9.70
2022-11-13T08:41:11.546Z,9.80
2022-11-13T08:44:15.623Z,9.80
2022-11-13T08:47:19.928Z,9.90
2022-11-13T08:50:25.941Z,10.00
2022-11-13T08:53:30.148Z,10.00
2022-11-13T08:56:34.134Z,10.10
2022-11-13T08:59:38.761Z,10.10
2022-11-13T09:02:44.474Z,10.20
2022-11-13T09:05:57.918Z,10.30
2022-11-13T09:09:05.059Z,10.30
2022-11-13T09:12:09.238Z,10.30
2022-11-13T09:15:20.313Z,10.40
2022-11-13T09:18:31.426Z,10.50
2022-11-13T09:21:35.684Z,10.50
2022-11-13T09:24:39.795Z,10.50
2022-11-13T09:27:44.014Z,10.60
2022-11-13T09:30:48.710Z,10.70
2022-11-13T09:33:53.341Z,10.80
2022-11-13T09:37:01.881Z,10.80
2022-11-13T09:40:07.751Z,10.90
2022-11-13T09:43:24.882Z,10.90
2022-11-13T09:46:56.396Z,11.00
2022-11-13T09:50:23.075Z,11.10
2022-11-13T09:53:33.672Z,11.20
2022-11-13T09:56:43.622Z,11.20
2022-11-13T10:00:05.700Z,11.30
2022-11-13T10:03:23.990Z,11.40
2022-11-13T10:07:03.849Z,11.50
2022-11-13T10:10:21.770Z,11.50
2022-11-13T10:13:32.763Z,11.60
2022-11-13T10:17:00.537Z,11.70
2022-11-13T10:20:12.535Z,11.80
2022-11-13T10:23:44.279Z,11.90
2022-11-13T10:26:48.992Z,12.10
2022-11-13T10:29:53.374Z,12.10
2022-11-13T10:33:05.923Z,12.30
2022-11-13T10:36:37.877Z,12.40
2022-11-13T10:39:45.863Z,12.60
2022-11-13T10:42:50.460Z,12.80
2022-11-13T10:46:00.835Z,12.90
2022-11-13T10:49:13.951Z,13.10
2022-11-13T10:52:25.212Z,13.30
2022-11-13T10:55:39.801Z,13.70
2022-11-13T10:58:44.428Z,14.20
2022-11-13T11:01:50.378Z,14.70
2022-11-13T11:05:05.186Z,15.40
2022-11-13T11:08:11.225Z,16.00
2022-11-13T11:11:37.520Z,16.90
2022-11-13T11:14:57.311Z,17.50
2022-11-13T11:18:17.031Z,18.40
2022-11-13T11:21:29.014Z,19.30
2022-11-13T11:24:42.203Z,20.30
2022-11-13T11:27:51.203Z,21.20
2022-11-13T11:31:22.899Z,22.10
2022-11-13T11:34:35.247Z,22.90
2022-11-13T11:38:02.744Z,23.80
2022-11-13T11:41:16.780Z,24.70
2022-11-13T11:44:42.601Z,25.40
2022-11-13T11:47:50.304Z,26.10
2022-11-13T11:51:31.379Z,26.90
2022-11-13T11:55:13.006Z,27.60
2022-11-13T11:59:02.717Z,28.40
2022-11-13T12:02:47.275Z,29.00
2022-11-13T12:06:25.395Z,29.70
2022-11-13T12:09:38.010Z,30.50
2022-11-13T12:13:11.470Z,30.40
2022-11-13T12:16:30.001Z,30.00
2022-11-13T12:19:48.039Z,30.40
2022-11-13T12:22:58.509Z,30.50
2022-11-13T12:26:30.729Z,29.70
2022-11-13T12:29:52.209Z,29.20
2022-11-13T12:33:05.897Z,29.10
2022-11-13T12:36:12.816Z,29.00
2022-11-13T12:39:38.426Z,29.70
2022-11-13T12:42:48.685Z,30.80
2022-11-13T12:45:57.439Z,31.70
2022-11-13T12:49:01.910Z,32.60
2022-11-13T12:52:15.689Z,33.40
2022-11-13T12:55:29.222Z,34.10
2022-11-13T12:58:33.547Z,34.90
2022-11-13T13:01:46.035Z,35.50
2022-11-13T13:05:10.986Z,36.20
2022-11-13T13:08:18.447Z,36.70
2022-11-13T13:11:44.853Z,36.90
2022-11-13T13:15:11.799Z,37.10
2022-11-13T13:18:19.067Z,37.20
2022-11-13T13:21:26.395Z,37.30
2022-11-13T13:24:34.818Z,37.50
2022-11-13T13:27:39.393Z,37.60
2022-11-13T13:31:05.712Z,37.70
2022-11-13T13:34:46.385Z,37.90
2022-11-13T13:38:08.470Z,38.00
2022-11-13T13:41:28.664Z,38.00
2022-11-13T13:44:40.410Z,37.90
2022-11-13T13:47:48.271Z,38.20
2022-11-13T13:50:53.554Z,38.40
2022-11-13T13:53:59.843Z,38.70
2022-11-13T13:57:03.982Z,38.80
2022-11-13T14:00:16.608Z,38.70
2022-11-13T14:03:23.040Z,38.80
2022-11-13T14:06:27.411Z,38.80
2022-11-13T14:09:31.988Z,38.90
2022-11-13T14:12:40.868Z,38.90
2022-11-13T14:15:45.181Z,38.80
2022-11-13T14:18:49.468Z,38.80
2022-11-13T14:21:58.490Z,38.60
2022-11-13T14:25:03.188Z,38.30
2022-11-13T14:28:13.670Z,38.30
2022-11-13T14:31:17.968Z,38.50
2022-11-13T14:34:23.984Z,38.50
2022-11-13T14:37:33.908Z,38.20
2022-11-13T14:40:38.293Z,38.00
2022-11-13T14:43:50.723Z,37.70
2022-11-13T14:47:05.134Z,37.20
2022-11-13T14:50:20.824Z,36.70
2022-11-13T14:53:34.624Z,36.30
2022-11-13T14:56:43.324Z,35.80
2022-11-13T14:59:47.544Z,35.50
2022-11-13T15:02:51.782Z,35.00
2022-11-13T15:05:56.333Z,34.30
2022-11-13T15:09:00.971Z,33.60
2022-11-13T15:12:05.346Z,33.10
2022-11-13T15:15:14.858Z,32.60
2022-11-13T15:18:20.386Z,32.10
2022-11-13T15:21:24.959Z,30.70
2022-11-13T15:24:29.290Z,28.90
2022-11-13T15:27:38.969Z,27.20
2022-11-13T15:30:47.160Z,25.70
2022-11-13T15:33:51.306Z,24.50
2022-11-13T15:36:55.984Z,24.00
2022-11-13T15:40:00.567Z,23.90
2022-11-13T15:43:06.260Z,23.70
2022-11-13T15:46:16.117Z,23.10
2022-11-13T15:49:20.158Z,22.20
2022-11-13T15:52:26.474Z,21.30
2022-11-13T15:55:32.086Z,20.50
2022-11-13T15:58:37.684Z,19.70
2022-11-13T16:01:42.479Z,19.10
2022-11-13T16:04:56.087Z,18.60
2022-11-13T16:08:01.126Z,18.00
2022-11-13T16:11:05.588Z,17.60
2022-11-13T16:14:10.900Z,17.20
2022-11-13T16:17:20.790Z,16.80
2022-11-13T16:20:25.171Z,16.40
2022-11-13T16:23:30.502Z,16.10
2022-11-13T16:26:34.865Z,15.80
2022-11-13T16:29:39.131Z,15.50
2022-11-13T16:32:43.331Z,15.30
2022-11-13T16:35:49.150Z,15.00
2022-11-13T16:38:55.600Z,14.80
2022-11-13T16:42:00.157Z,14.60
2022-11-13T16:45:04.952Z,14.30
2022-11-13T16:48:15.977Z,14.10
2022-11-13T16:51:20.403Z,14.00
2022-11-13T16:54:27.397Z,13.80
2022-11-13T16:57:31.746Z,13.70
2022-11-13T17:00:36.014Z,13.50
2022-11-13T17:03:40.329Z,13.40
2022-11-13T17:06:44.825Z,13.30
2022-11-13T17:09:58.899Z,13.10
2022-11-13T17:13:09.866Z,13.00
2022-11-13T17:16:14.679Z,12.80
2022-11-13T17:19:19.398Z,12.70
2022-11-13T17:22:23.838Z,12.50
2022-11-13T17:25:28.367Z,12.40
2022-11-13T17:28:32.837Z,12.30
2022-11-13T17:31:37.433Z,12.20
2022-11-13T17:34:44.785Z,12.00
2022-11-13T17:37:49.157Z,12.00
2022-11-13T17:40:56.373Z,11.90
2022-11-13T17:44:03.498Z,11.80
2022-11-13T17:47:08.258Z,11.80
2022-11-13T17:50:12.970Z,11.70
2022-11-13T17:53:17.159Z,11.60
2022-11-13T17:56:21.398Z,11.50
2022-11-13T17:59:25.759Z,11.50
2022-11-13T18:02:30.563Z,11.40
2022-11-13T18:05:40.556Z,11.30
2022-11-13T18:08:45.638Z,11.20
2022-11-13T18:11:49.794Z,11.10
2022-11-13T18:14:56.991Z,11.00
2022-11-13T18:18:01.241Z,11.00
2022-11-13T18:21:23.915Z,10.90
2022-11-13T18:24:28.150Z,10.80
2022-11-13T18:27:32.547Z,10.80
2022-11-13T18:30:39.262Z,10.70
2022-11-13T18:33:44.461Z,10.60
2022-11-13T18:36:49.101Z,10.60
2022-11-13T18:39:53.458Z,10.60
2022-11-13T18:42:57.315Z,10.50
2022-11-13T18:46:07.074Z,10.50
2022-11-13T18:49:11.162Z,10.40
2022-11-13T18:52:15.967Z,10.20
2022-11-13T18:55:20.190Z,10.10
2022-11-13T18:58:24.878Z,10.10
2022-11-13T19:01:31.766Z,10.00
2022-11-13T19:04:36.299Z,9.90
2022-11-13T19:07:40.820Z,9.90
2022-11-13T19:10:44.978Z,9.80
2022-11-13T19:13:49.838Z,9.70
2022-11-13T19:16:53.890Z,9.70
2022-11-13T19:19:58.526Z,9.70
2022-11-13T19:23:07.882Z,9.60
2022-11-13T19:26:13.153Z,9.60
2022-11-13T19:29:17.517Z,9.60
2022-11-13T19:32:22.136Z,9.50
2022-11-13T19:35:26.947Z,9.50
2022-11-13T19:38:31.752Z,9.40
2022-11-13T19:41:36.260Z,9.40
2022-11-13T19:44:40.307Z,9.20
2022-11-13T19:47:44.696Z,9.20
2022-11-13T19:50:49.482Z,9.10
2022-11-13T19:53:55.902Z,9.10
2022-11-13T19:57:00.230Z,9.00
2022-11-13T20:00:09.055Z,9.00
2022-11-13T20:03:16.490Z,9.00
2022-11-13T20:06:21.037Z,9.00
2022-11-13T20:09:25.354Z,9.00
2022-11-13T20:12:30.562Z,9.00
2022-11-13T20:15:35.257Z,9.00
2022-11-13T20:18:41.266Z,9.00
2022-11-13T20:21:45.793Z,9.00
2022-11-13T20:24:50.280Z,9.00
2022-11-13T20:27:59.608Z,9.00
2022-11-13T20:31:20.368Z,9.00
2022-11-13T20:34:24.835Z,9.00
2022-11-13T20:37:29.016Z,9.00
2022-11-13T20:40:33.542Z,9.00
2022-11-13T20:43:38.507Z,9.00
2022-11-13T20:46:43.038Z,9.00
2022-11-13T20:49:47.812Z,9.00
2022-11-13T20:52:52.177Z,9.00
2022-11-13T20:55:56.645Z,8.90
2022-11-13T20:59:03.970Z,8.90
2022-11-13T21:02:10.477Z,9.00
2022-11-13T21:05:15.325Z,8.90
2022-11-13T21:08:19.915Z,8.90
2022-11-13T21:11:29.411Z,8.90
2022-11-13T21:14:33.831Z,8.80
2022-11-13T21:17:38.190Z,8.80
2022-11-13T21:20:42.326Z,8.80
2022-11-13T21:23:47.784Z,8.80
2022-11-13T21:26:52.006Z,8.80
2022-11-13T21:29:56.643Z,8.70
2022-11-13T21:33:01.205Z,8.70
2022-11-13T21:36:23.223Z,8.60
2022-11-13T21:39:27.121Z,8.60
2022-11-13T21:42:31.872Z,8.60
2022-11-13T21:45:36.046Z,8.60
2022-11-13T21:48:41.891Z,8.50
2022-11-13T21:51:45.769Z,8.50
2022-11-13T21:54:49.914Z,8.50
2022-11-13T21:57:54.421Z,8.50
2022-11-13T22:00:59.567Z,8.40
2022-11-13T22:04:03.897Z,8.40
2022-11-13T22:07:08.311Z,8.40
2022-11-13T22:10:12.830Z,8.30
2022-11-13T22:13:17.445Z,8.30
2022-11-13T22:16:22.741Z,8.30
2022-11-13T22:19:30.155Z,8.30
2022-11-13T22:22:36.879Z,8.20
2022-11-13T22:25:41.495Z,8.20
2022-11-13T22:28:46.932Z,8.20
2022-11-13T22:31:51.254Z,8.10
2022-11-13T22:34:55.315Z,8.10
2022-11-13T22:38:02.157Z,8.00
2022-11-13T22:41:13.075Z,8.00
2022-11-13T22:44:22.447Z,7.90
2022-11-13T22:47:26.719Z,7.90
2022-11-13T22:50:31.226Z,7.90
2022-11-13T22:53:36.198Z,7.90
2022-11-13T22:56:41.639Z,7.80
2022-11-13T22:59:45.791Z,7.80
2022-11-13T23:02:50.389Z,7.80
2022-11-13T23:05:59.058Z,7.80
2022-11-13T23:09:04.400Z,7.70
2022-11-13T23:12:12.697Z,7.70
2022-11-13T23:15:16.874Z,7.70
2022-11-13T23:18:21.430Z,7.60
2022-11-13T23:21:29.943Z,7.60
2022-11-13T23:24:34.060Z,7.60
2022-11-13T23:27:38.590Z,7.60
2022-11-13T23:30:42.867Z,7.60
2022-11-13T23:33:47.502Z,7.50
2022-11-13T23:36:52.287Z,7.50
2022-11-13T23:39:56.783Z,7.50
2022-11-13T23:43:03.674Z,7.50
2022-11-13T23:46:07.860Z,7.50
2022-11-13T23:49:12.554Z,7.50
2022-11-13T23:52:16.688Z,7.40
2022-11-13T23:55:21.414Z,7.40
2022-11-13T23:58:26.301Z,7.40
